Hayward Executive, CA

9:51 PM PDT on August 19, 2014 (GMT -0700)
San Francisco International | Change Station
CLOSE
Current Station
Airport
Location: San Francisco,
Elevation: 16 ft
Nearby Weather Stations

Elev 16 ft 37.62 °N, 122.37 °W | Updated 55 minutes ago

Partly Cloudy
Partly Cloudy
66 °F
Feels Like 66 °F
N
5
Wind Variable Wind from SSW

Today
High -- | Low -- °F
--% Chance of Precip.
Yesterday
High -- | Low -- °F
Precip. -- in
6:27 AM 7:55 PM
Waning Crescent, 24% visible
Pressure 29.84 in
Visibility 10.0 miles
Clouds Few 1300 ft
Dew Point 58 °F
Humidity 75%
Rainfall 0.00 in
Snow Depth Not available.
UV 0 out of 12
Pollen 4.90 out of 12
PM2.5 Good
Flu Activity Not available.
METAR KSFO 200356Z 20004KT 10SM FEW013 19/14 A2984 RMK AO2 SLP104 T01890144 $

More Conditions Fewer Conditions

Pressure 29.84 in
Visibility 10.0 miles
Clouds Few 1300 ft
Dew Point 58 °F
Humidity 75%
Rainfall 0.00 in
Snow Depth Not available.
UV 0 out of 12
Pollen 4.90 out of 12
PM2.5 Good
Flu Activity Not available.
METAR KSFO 200356Z 20004KT 10SM FEW013 19/14 A2984 RMK AO2 SLP104 T01890144 $

More Conditions Fewer Conditions

10-Day Weather Forecast

Almanac

Astronomy

Aug. 19, 2014 Rise Set
Actual Time 6:27 AM PDT 7:55 PM PDT
Civil Twilight 6:00 AM PDT 8:23 PM PDT
Nautical Twilight 5:26 AM PDT 8:56 PM PDT
Astronomical Twilight 4:51 AM PDT 9:31 PM PDT
Moon 1:25 AM PDT (8/19) 3:54 PM PDT (8/19)
Length of Visible Light 14h 23m
Length of Day
13h 28m
Tomorrow will be 2m 11s shorter.
Waning Crescent, 24% of the Moon is Illuminated
Aug 20
Waning Crescent
Aug 25
New
Sep 2
First Quarter
Sep 8
Full
Sep 15
Last Quarter

Yesterday's Extremes

State Highs State Lows

Community

WunderPhotos

Upload Photos

1,745,585 photos uploaded!

Nearby

Air Quality

  Air Quality AQ Index Pollutant
Yesterday Good
OZONE
Yesterday Good
PM2.5
Current Good
PM2.5
Tuesday Good
OZONE
Wednesday Good
OZONE
Thursday Good
OZONE
Friday Good
OZONE
Saturday Good
OZONE
Sunday Good
OZONE

Snow Depth

Station Depth Elevation
Blue Lakes 0 in 8000 ft
Echo Peak 1 in 7800 ft
Leavitt Lake 0 in 9400 ft
Hagan's Meadow 0 in 8000 ft
Leavitt Meadows 0 in 7200 ft

Earthquake Activity

City Distance Mag. Time & Date
King City, California 116 miles 2.9 8:01 PM PDT
2014-08-14
The Geysers, California 84 miles 2.6 8:55 PM PDT
2014-08-13
Upper Lake, California 123 miles 2.9 3:32 PM PDT
2014-08-13
Minimum magnitude displayed is 2.5.

Coastal Water Temperatures

Place Temperature
No Stations Reporting

Nearby Weather Stations